sensor_id;sensor_type;location;lat;lon;timestamp;temperature;humidity
36654;DHT22;22650;49.350;20.898;2024-02-21T00:00:53;5.30;99.90
36654;DHT22;22650;49.350;20.898;2024-02-21T00:03:27;5.30;99.90
36654;DHT22;22650;49.350;20.898;2024-02-21T00:06:00;5.30;99.90
36654;DHT22;22650;49.350;20.898;2024-02-21T00:08:34;5.30;99.90
36654;DHT22;22650;49.350;20.898;2024-02-21T00:11:08;5.30;99.90
36654;DHT22;22650;49.350;20.898;2024-02-21T00:13:43;5.30;99.90
36654;DHT22;22650;49.350;20.898;2024-02-21T00:16:17;5.40;99.90
36654;DHT22;22650;49.350;20.898;2024-02-21T00:18:51;5.30;99.90
36654;DHT22;22650;49.350;20.898;2024-02-21T00:21:24;5.30;99.90
36654;DHT22;22650;49.350;20.898;2024-02-21T00:23:58;5.40;99.90
36654;DHT22;22650;49.350;20.898;2024-02-21T00:26:32;5.40;99.90
36654;DHT22;22650;49.350;20.898;2024-02-21T00:29:06;5.40;99.90
36654;DHT22;22650;49.350;20.898;2024-02-21T00:31:40;5.40;99.90
36654;DHT22;22650;49.350;20.898;2024-02-21T00:34:14;5.30;99.90
36654;DHT22;22650;49.350;20.898;2024-02-21T00:36:48;5.30;99.90
36654;DHT22;22650;49.350;20.898;2024-02-21T00:39:22;5.40;99.90
36654;DHT22;22650;49.350;20.898;2024-02-21T00:41:58;5.40;99.90
36654;DHT22;22650;49.350;20.898;2024-02-21T00:44:33;5.30;99.90
36654;DHT22;22650;49.350;20.898;2024-02-21T00:47:07;5.40;99.90
36654;DHT22;22650;49.350;20.898;2024-02-21T00:49:40;5.40;99.90
36654;DHT22;22650;49.350;20.898;2024-02-21T00:52:14;5.40;99.90
36654;DHT22;22650;49.350;20.898;2024-02-21T00:54:48;5.40;99.90
36654;DHT22;22650;49.350;20.898;2024-02-21T00:57:26;5.40;99.90
36654;DHT22;22650;49.350;20.898;2024-02-21T01:00:01;5.40;99.90
36654;DHT22;22650;49.350;20.898;2024-02-21T01:02:34;5.40;99.90
36654;DHT22;22650;49.350;20.898;2024-02-21T01:05:08;5.40;99.90
36654;DHT22;22650;49.350;20.898;2024-02-21T01:07:42;5.40;99.90
36654;DHT22;22650;49.350;20.898;2024-02-21T01:10:15;5.40;99.90
36654;DHT22;22650;49.350;20.898;2024-02-21T01:12:49;5.40;99.90
36654;DHT22;22650;49.350;20.898;2024-02-21T01:15:24;5.40;99.90
36654;DHT22;22650;49.350;20.898;2024-02-21T01:17:58;5.40;99.90
36654;DHT22;22650;49.350;20.898;2024-02-21T01:20:31;5.40;99.90
36654;DHT22;22650;49.350;20.898;2024-02-21T01:23:05;5.30;99.90
36654;DHT22;22650;49.350;20.898;2024-02-21T01:25:39;5.30;99.90
36654;DHT22;22650;49.350;20.898;2024-02-21T01:28:12;5.30;99.90
36654;DHT22;22650;49.350;20.898;2024-02-21T01:30:47;5.30;99.90
36654;DHT22;22650;49.350;20.898;2024-02-21T01:33:21;5.30;99.90
36654;DHT22;22650;49.350;20.898;2024-02-21T01:35:54;5.20;99.90
36654;DHT22;22650;49.350;20.898;2024-02-21T01:38:28;5.20;99.90
36654;DHT22;22650;49.350;20.898;2024-02-21T01:41:02;5.20;99.90
36654;DHT22;22650;49.350;20.898;2024-02-21T01:43:36;5.20;99.90
36654;DHT22;22650;49.350;20.898;2024-02-21T01:46:11;5.20;99.90
36654;DHT22;22650;49.350;20.898;2024-02-21T01:48:45;5.20;99.90
36654;DHT22;22650;49.350;20.898;2024-02-21T01:51:19;5.20;99.90
36654;DHT22;22650;49.350;20.898;2024-02-21T01:53:53;5.20;99.90
36654;DHT22;22650;49.350;20.898;2024-02-21T01:56:28;5.20;99.90
36654;DHT22;22650;49.350;20.898;2024-02-21T01:59:02;5.20;99.90
36654;DHT22;22650;49.350;20.898;2024-02-21T02:01:37;5.20;99.90
36654;DHT22;22650;49.350;20.898;2024-02-21T02:04:11;5.10;99.90
36654;DHT22;22650;49.350;20.898;2024-02-21T02:06:45;5.10;99.90
36654;DHT22;22650;49.350;20.898;2024-02-21T02:09:19;5.10;99.90
36654;DHT22;22650;49.350;20.898;2024-02-21T02:11:53;5.10;99.90
36654;DHT22;22650;49.350;20.898;2024-02-21T02:14:26;5.10;99.90
36654;DHT22;22650;49.350;20.898;2024-02-21T02:17:01;5.10;99.90
36654;DHT22;22650;49.350;20.898;2024-02-21T02:19:35;5.10;99.90
36654;DHT22;22650;49.350;20.898;2024-02-21T02:22:13;5.10;99.90
36654;DHT22;22650;49.350;20.898;2024-02-21T02:24:50;5.10;99.90
36654;DHT22;22650;49.350;20.898;2024-02-21T02:27:24;5.10;99.90
36654;DHT22;22650;49.350;20.898;2024-02-21T02:29:58;5.00;99.90
36654;DHT22;22650;49.350;20.898;2024-02-21T02:32:31;5.00;99.90
36654;DHT22;22650;49.350;20.898;2024-02-21T02:35:06;5.00;99.90
36654;DHT22;22650;49.350;20.898;2024-02-21T02:37:39;5.00;99.90
36654;DHT22;22650;49.350;20.898;2024-02-21T02:40:14;5.00;99.90
36654;DHT22;22650;49.350;20.898;2024-02-21T02:42:48;5.00;99.90
36654;DHT22;22650;49.350;20.898;2024-02-21T02:45:23;5.00;99.90
36654;DHT22;22650;49.350;20.898;2024-02-21T02:47:58;5.00;99.90
36654;DHT22;22650;49.350;20.898;2024-02-21T02:50:32;4.90;99.90
36654;DHT22;22650;49.350;20.898;2024-02-21T02:53:06;4.90;99.90
36654;DHT22;22650;49.350;20.898;2024-02-21T02:55:41;4.90;99.90
36654;DHT22;22650;49.350;20.898;2024-02-21T02:58:15;4.90;99.90
36654;DHT22;22650;49.350;20.898;2024-02-21T03:00:48;4.90;99.90
36654;DHT22;22650;49.350;20.898;2024-02-21T03:03:22;4.90;99.90
36654;DHT22;22650;49.350;20.898;2024-02-21T03:05:55;4.90;99.90
36654;DHT22;22650;49.350;20.898;2024-02-21T03:08:29;4.80;99.90
36654;DHT22;22650;49.350;20.898;2024-02-21T03:11:04;4.70;99.90
36654;DHT22;22650;49.350;20.898;2024-02-21T03:13:38;4.60;99.90
36654;DHT22;22650;49.350;20.898;2024-02-21T03:16:12;4.60;99.90
36654;DHT22;22650;49.350;20.898;2024-02-21T03:18:45;4.60;99.90
36654;DHT22;22650;49.350;20.898;2024-02-21T03:21:19;4.60;99.90
36654;DHT22;22650;49.350;20.898;2024-02-21T03:23:52;4.60;99.90
36654;DHT22;22650;49.350;20.898;2024-02-21T03:26:27;4.60;99.90
36654;DHT22;22650;49.350;20.898;2024-02-21T03:29:01;4.50;99.90
36654;DHT22;22650;49.350;20.898;2024-02-21T03:31:34;4.50;99.90
36654;DHT22;22650;49.350;20.898;2024-02-21T03:34:09;4.50;99.90
36654;DHT22;22650;49.350;20.898;2024-02-21T03:36:43;4.50;99.90
36654;DHT22;22650;49.350;20.898;2024-02-21T03:39:17;4.50;99.90
36654;DHT22;22650;49.350;20.898;2024-02-21T03:41:52;4.50;99.90
36654;DHT22;22650;49.350;20.898;2024-02-21T03:44:26;4.50;99.90
36654;DHT22;22650;49.350;20.898;2024-02-21T03:47:00;4.50;99.90
36654;DHT22;22650;49.350;20.898;2024-02-21T03:49:33;4.50;99.90
36654;DHT22;22650;49.350;20.898;2024-02-21T03:52:07;4.40;99.90
36654;DHT22;22650;49.350;20.898;2024-02-21T03:54:41;4.40;99.90
36654;DHT22;22650;49.350;20.898;2024-02-21T03:57:16;4.30;99.90
36654;DHT22;22650;49.350;20.898;2024-02-21T03:59:51;4.30;99.90
36654;DHT22;22650;49.350;20.898;2024-02-21T04:02:25;4.20;99.90
36654;DHT22;22650;49.350;20.898;2024-02-21T04:04:58;4.10;99.90
36654;DHT22;22650;49.350;20.898;2024-02-21T04:07:32;4.10;99.90
36654;DHT22;22650;49.350;20.898;2024-02-21T04:10:06;4.10;99.90
36654;DHT22;22650;49.350;20.898;2024-02-21T04:12:41;4.00;99.90
36654;DHT22;22650;49.350;20.898;2024-02-21T04:15:15;4.00;99.90
36654;DHT22;22650;49.350;20.898;2024-02-21T04:17:48;4.00;99.90
36654;DHT22;22650;49.350;20.898;2024-02-21T04:20:23;3.90;99.90
36654;DHT22;22650;49.350;20.898;2024-02-21T04:22:56;3.90;99.90
36654;DHT22;22650;49.350;20.898;2024-02-21T04:25:30;3.80;99.90
36654;DHT22;22650;49.350;20.898;2024-02-21T04:28:05;3.70;99.90
36654;DHT22;22650;49.350;20.898;2024-02-21T04:30:39;3.70;99.90
36654;DHT22;22650;49.350;20.898;2024-02-21T04:33:12;3.60;99.90
36654;DHT22;22650;49.350;20.898;2024-02-21T04:35:46;3.50;99.90
36654;DHT22;22650;49.350;20.898;2024-02-21T04:38:20;3.40;99.90
36654;DHT22;22650;49.350;20.898;2024-02-21T04:40:53;3.30;99.90
36654;DHT22;22650;49.350;20.898;2024-02-21T04:43:28;3.20;99.90
36654;DHT22;22650;49.350;20.898;2024-02-21T04:46:02;3.20;99.90
36654;DHT22;22650;49.350;20.898;2024-02-21T04:48:35;3.10;99.90
36654;DHT22;22650;49.350;20.898;2024-02-21T04:51:09;3.00;99.90
36654;DHT22;22650;49.350;20.898;2024-02-21T04:53:42;2.90;99.90
36654;DHT22;22650;49.350;20.898;2024-02-21T04:56:16;2.80;99.90
36654;DHT22;22650;49.350;20.898;2024-02-21T04:58:51;2.70;99.90
36654;DHT22;22650;49.350;20.898;2024-02-21T05:01:25;2.70;99.90
36654;DHT22;22650;49.350;20.898;2024-02-21T05:03:58;2.70;99.90
36654;DHT22;22650;49.350;20.898;2024-02-21T05:06:32;2.70;99.90
36654;DHT22;22650;49.350;20.898;2024-02-21T05:09:06;2.60;99.90
36654;DHT22;22650;49.350;20.898;2024-02-21T05:11:41;2.60;99.90
36654;DHT22;22650;49.350;20.898;2024-02-21T05:14:15;2.60;99.90
36654;DHT22;22650;49.350;20.898;2024-02-21T05:16:49;2.50;99.90
36654;DHT22;22650;49.350;20.898;2024-02-21T05:19:23;2.50;99.90
36654;DHT22;22650;49.350;20.898;2024-02-21T05:21:56;2.50;99.90
36654;DHT22;22650;49.350;20.898;2024-02-21T05:24:30;2.40;99.90
36654;DHT22;22650;49.350;20.898;2024-02-21T05:27:04;2.40;99.90
36654;DHT22;22650;49.350;20.898;2024-02-21T05:29:39;2.30;99.90
36654;DHT22;22650;49.350;20.898;2024-02-21T05:32:13;2.20;99.90
36654;DHT22;22650;49.350;20.898;2024-02-21T05:34:48;2.10;99.90
36654;DHT22;22650;49.350;20.898;2024-02-21T05:37:23;2.10;99.90
36654;DHT22;22650;49.350;20.898;2024-02-21T05:39:56;2.00;99.90
36654;DHT22;22650;49.350;20.898;2024-02-21T05:42:30;2.00;99.90
36654;DHT22;22650;49.350;20.898;2024-02-21T05:45:06;2.00;99.90
36654;DHT22;22650;49.350;20.898;2024-02-21T05:47:40;2.00;99.90
36654;DHT22;22650;49.350;20.898;2024-02-21T05:50:13;1.90;99.90
36654;DHT22;22650;49.350;20.898;2024-02-21T05:52:47;1.90;99.90
36654;DHT22;22650;49.350;20.898;2024-02-21T05:55:21;1.90;99.90
36654;DHT22;22650;49.350;20.898;2024-02-21T05:57:54;1.90;99.90
36654;DHT22;22650;49.350;20.898;2024-02-21T06:00:29;1.90;99.90
36654;DHT22;22650;49.350;20.898;2024-02-21T06:03:03;1.80;99.90
36654;DHT22;22650;49.350;20.898;2024-02-21T06:05:37;1.80;99.90
36654;DHT22;22650;49.350;20.898;2024-02-21T06:08:11;1.80;99.90
36654;DHT22;22650;49.350;20.898;2024-02-21T06:10:45;1.80;99.90
36654;DHT22;22650;49.350;20.898;2024-02-21T06:13:19;1.80;99.90
36654;DHT22;22650;49.350;20.898;2024-02-21T06:15:54;1.80;99.90
36654;DHT22;22650;49.350;20.898;2024-02-21T06:18:28;1.80;99.90
36654;DHT22;22650;49.350;20.898;2024-02-21T06:21:02;1.90;99.90
36654;DHT22;22650;49.350;20.898;2024-02-21T06:23:37;1.90;99.90
36654;DHT22;22650;49.350;20.898;2024-02-21T06:26:10;1.90;99.90
36654;DHT22;22650;49.350;20.898;2024-02-21T06:28:44;1.90;99.90
36654;DHT22;22650;49.350;20.898;2024-02-21T06:31:20;1.90;99.90
36654;DHT22;22650;49.350;20.898;2024-02-21T06:33:54;2.00;99.90
36654;DHT22;22650;49.350;20.898;2024-02-21T06:36:27;2.00;99.90
36654;DHT22;22650;49.350;20.898;2024-02-21T06:39:01;2.00;99.90
36654;DHT22;22650;49.350;20.898;2024-02-21T06:41:36;2.00;99.90
36654;DHT22;22650;49.350;20.898;2024-02-21T06:44:10;2.10;99.90
36654;DHT22;22650;49.350;20.898;2024-02-21T06:46:45;2.10;99.90
36654;DHT22;22650;49.350;20.898;2024-02-21T06:49:19;2.10;99.90
36654;DHT22;22650;49.350;20.898;2024-02-21T06:51:53;2.10;99.90
36654;DHT22;22650;49.350;20.898;2024-02-21T06:54:26;2.10;99.90
36654;DHT22;22650;49.350;20.898;2024-02-21T06:57:00;2.10;99.90
36654;DHT22;22650;49.350;20.898;2024-02-21T06:59:34;2.20;99.90
36654;DHT22;22650;49.350;20.898;2024-02-21T07:02:09;2.20;99.90
36654;DHT22;22650;49.350;20.898;2024-02-21T07:04:42;2.20;99.90
36654;DHT22;22650;49.350;20.898;2024-02-21T07:07:17;2.20;99.90
36654;DHT22;22650;49.350;20.898;2024-02-21T07:09:50;2.30;99.90
36654;DHT22;22650;49.350;20.898;2024-02-21T07:12:26;2.30;99.90
36654;DHT22;22650;49.350;20.898;2024-02-21T07:14:59;2.40;99.90
36654;DHT22;22650;49.350;20.898;2024-02-21T07:17:37;2.50;99.90
36654;DHT22;22650;49.350;20.898;2024-02-21T07:20:11;2.50;99.90
36654;DHT22;22650;49.350;20.898;2024-02-21T07:22:45;2.60;99.90
36654;DHT22;22650;49.350;20.898;2024-02-21T07:25:19;2.70;99.90
36654;DHT22;22650;49.350;20.898;2024-02-21T07:27:52;2.80;99.90
36654;DHT22;22650;49.350;20.898;2024-02-21T07:30:26;2.80;99.90
36654;DHT22;22650;49.350;20.898;2024-02-21T07:33:01;2.90;99.90
36654;DHT22;22650;49.350;20.898;2024-02-21T07:35:34;3.00;99.90
36654;DHT22;22650;49.350;20.898;2024-02-21T07:38:09;3.00;99.90
36654;DHT22;22650;49.350;20.898;2024-02-21T07:40:45;3.10;99.90
36654;DHT22;22650;49.350;20.898;2024-02-21T07:43:19;3.10;99.90
36654;DHT22;22650;49.350;20.898;2024-02-21T07:45:54;3.20;99.90
36654;DHT22;22650;49.350;20.898;2024-02-21T07:48:29;3.20;99.90
36654;DHT22;22650;49.350;20.898;2024-02-21T07:51:06;3.20;99.90
36654;DHT22;22650;49.350;20.898;2024-02-21T07:53:40;3.30;99.90
36654;DHT22;22650;49.350;20.898;2024-02-21T07:56:17;3.40;99.90
36654;DHT22;22650;49.350;20.898;2024-02-21T07:58:50;3.50;99.90
36654;DHT22;22650;49.350;20.898;2024-02-21T08:01:24;3.50;99.90
36654;DHT22;22650;49.350;20.898;2024-02-21T08:03:59;3.60;99.90
36654;DHT22;22650;49.350;20.898;2024-02-21T08:06:33;3.70;99.90
36654;DHT22;22650;49.350;20.898;2024-02-21T08:09:07;3.80;99.90
36654;DHT22;22650;49.350;20.898;2024-02-21T08:11:40;3.90;99.90
36654;DHT22;22650;49.350;20.898;2024-02-21T08:14:14;4.00;99.90
36654;DHT22;22650;49.350;20.898;2024-02-21T08:16:52;4.20;99.90
36654;DHT22;22650;49.350;20.898;2024-02-21T08:19:29;4.40;99.90
36654;DHT22;22650;49.350;20.898;2024-02-21T08:22:02;4.50;99.90
36654;DHT22;22650;49.350;20.898;2024-02-21T08:24:36;4.70;99.90
36654;DHT22;22650;49.350;20.898;2024-02-21T08:27:10;4.90;99.90
36654;DHT22;22650;49.350;20.898;2024-02-21T08:29:44;5.10;99.90
36654;DHT22;22650;49.350;20.898;2024-02-21T08:32:17;5.40;99.90
36654;DHT22;22650;49.350;20.898;2024-02-21T08:34:52;5.60;99.90
36654;DHT22;22650;49.350;20.898;2024-02-21T08:37:27;5.90;99.90
36654;DHT22;22650;49.350;20.898;2024-02-21T08:40:00;6.10;99.90
36654;DHT22;22650;49.350;20.898;2024-02-21T08:42:39;6.40;99.90
36654;DHT22;22650;49.350;20.898;2024-02-21T08:45:12;6.80;99.90
36654;DHT22;22650;49.350;20.898;2024-02-21T08:47:46;7.10;99.90
36654;DHT22;22650;49.350;20.898;2024-02-21T08:50:21;7.40;99.90
36654;DHT22;22650;49.350;20.898;2024-02-21T08:53:00;7.70;99.90
36654;DHT22;22650;49.350;20.898;2024-02-21T08:55:34;8.10;99.90
36654;DHT22;22650;49.350;20.898;2024-02-21T08:58:08;8.50;99.90
36654;DHT22;22650;49.350;20.898;2024-02-21T09:00:42;8.90;99.90
36654;DHT22;22650;49.350;20.898;2024-02-21T09:03:15;9.30;99.90
36654;DHT22;22650;49.350;20.898;2024-02-21T09:05:51;9.50;99.90
36654;DHT22;22650;49.350;20.898;2024-02-21T09:08:25;9.70;99.90
36654;DHT22;22650;49.350;20.898;2024-02-21T09:10:59;10.00;99.90
36654;DHT22;22650;49.350;20.898;2024-02-21T09:13:33;10.20;99.90
36654;DHT22;22650;49.350;20.898;2024-02-21T09:16:07;10.50;99.90
36654;DHT22;22650;49.350;20.898;2024-02-21T09:18:41;10.70;99.90
36654;DHT22;22650;49.350;20.898;2024-02-21T09:21:16;10.80;99.90
36654;DHT22;22650;49.350;20.898;2024-02-21T09:23:49;10.90;99.90
36654;DHT22;22650;49.350;20.898;2024-02-21T09:26:24;11.00;99.90
36654;DHT22;22650;49.350;20.898;2024-02-21T09:28:58;11.10;99.90
36654;DHT22;22650;49.350;20.898;2024-02-21T09:31:32;11.20;99.90
36654;DHT22;22650;49.350;20.898;2024-02-21T09:34:06;11.20;99.90
36654;DHT22;22650;49.350;20.898;2024-02-21T09:36:41;11.30;99.90
36654;DHT22;22650;49.350;20.898;2024-02-21T09:39:15;11.30;99.90
36654;DHT22;22650;49.350;20.898;2024-02-21T09:41:50;11.40;99.90
36654;DHT22;22650;49.350;20.898;2024-02-21T09:44:33;11.30;99.90
36654;DHT22;22650;49.350;20.898;2024-02-21T09:47:10;11.30;99.90
36654;DHT22;22650;49.350;20.898;2024-02-21T09:49:46;11.40;99.90
36654;DHT22;22650;49.350;20.898;2024-02-21T09:52:22;11.50;99.90
36654;DHT22;22650;49.350;20.898;2024-02-21T09:54:58;11.60;99.90
36654;DHT22;22650;49.350;20.898;2024-02-21T09:57:32;11.60;99.90
36654;DHT22;22650;49.350;20.898;2024-02-21T10:00:07;11.70;99.90
36654;DHT22;22650;49.350;20.898;2024-02-21T10:02:49;11.80;99.90
36654;DHT22;22650;49.350;20.898;2024-02-21T10:05:23;12.00;99.90
36654;DHT22;22650;49.350;20.898;2024-02-21T10:07:59;12.10;99.90
36654;DHT22;22650;49.350;20.898;2024-02-21T10:10:42;12.10;99.90
36654;DHT22;22650;49.350;20.898;2024-02-21T10:13:24;12.30;99.90
36654;DHT22;22650;49.350;20.898;2024-02-21T10:16:03;12.40;99.90
36654;DHT22;22650;49.350;20.898;2024-02-21T10:18:37;12.60;99.90
36654;DHT22;22650;49.350;20.898;2024-02-21T10:21:10;12.90;99.90
36654;DHT22;22650;49.350;20.898;2024-02-21T10:23:46;13.00;99.90
36654;DHT22;22650;49.350;20.898;2024-02-21T10:26:20;13.20;99.50
36654;DHT22;22650;49.350;20.898;2024-02-21T10:28:54;13.40;97.80
36654;DHT22;22650;49.350;20.898;2024-02-21T10:31:28;13.50;97.20
36654;DHT22;22650;49.350;20.898;2024-02-21T10:34:02;13.60;97.20
36654;DHT22;22650;49.350;20.898;2024-02-21T10:36:38;13.80;99.90
36654;DHT22;22650;49.350;20.898;2024-02-21T10:39:13;14.10;94.20
36654;DHT22;22650;49.350;20.898;2024-02-21T10:41:46;14.40;94.80
36654;DHT22;22650;49.350;20.898;2024-02-21T10:44:20;14.40;84.60
36654;DHT22;22650;49.350;20.898;2024-02-21T10:46:54;14.30;88.30
36654;DHT22;22650;49.350;20.898;2024-02-21T10:49:30;14.50;81.90
36654;DHT22;22650;49.350;20.898;2024-02-21T10:52:09;14.60;90.90
36654;DHT22;22650;49.350;20.898;2024-02-21T10:54:55;14.80;86.40
36654;DHT22;22650;49.350;20.898;2024-02-21T10:57:31;14.90;83.50
36654;DHT22;22650;49.350;20.898;2024-02-21T11:00:06;15.00;85.00
36654;DHT22;22650;49.350;20.898;2024-02-21T11:02:42;14.90;86.50
36654;DHT22;22650;49.350;20.898;2024-02-21T11:05:17;14.70;84.10
36654;DHT22;22650;49.350;20.898;2024-02-21T11:07:51;14.50;82.40
36654;DHT22;22650;49.350;20.898;2024-02-21T11:10:27;14.50;86.10
36654;DHT22;22650;49.350;20.898;2024-02-21T11:13:07;14.30;80.60
36654;DHT22;22650;49.350;20.898;2024-02-21T11:15:41;14.20;81.80
36654;DHT22;22650;49.350;20.898;2024-02-21T11:18:23;14.10;88.40
36654;DHT22;22650;49.350;20.898;2024-02-21T11:20:57;14.20;88.00
36654;DHT22;22650;49.350;20.898;2024-02-21T11:23:31;14.10;92.00
36654;DHT22;22650;49.350;20.898;2024-02-21T11:26:09;14.10;89.60
36654;DHT22;22650;49.350;20.898;2024-02-21T11:28:43;13.80;85.90
36654;DHT22;22650;49.350;20.898;2024-02-21T11:31:17;13.70;85.80
36654;DHT22;22650;49.350;20.898;2024-02-21T11:33:51;13.50;87.80
36654;DHT22;22650;49.350;20.898;2024-02-21T11:36:25;13.40;88.10
36654;DHT22;22650;49.350;20.898;2024-02-21T11:39:03;13.30;88.30
36654;DHT22;22650;49.350;20.898;2024-02-21T11:41:39;13.10;82.70
36654;DHT22;22650;49.350;20.898;2024-02-21T11:44:12;13.00;86.60
36654;DHT22;22650;49.350;20.898;2024-02-21T11:46:46;12.90;85.00
36654;DHT22;22650;49.350;20.898;2024-02-21T11:49:19;12.80;90.50
36654;DHT22;22650;49.350;20.898;2024-02-21T11:51:58;12.70;90.50
36654;DHT22;22650;49.350;20.898;2024-02-21T11:54:33;12.70;93.40
36654;DHT22;22650;49.350;20.898;2024-02-21T11:57:09;12.60;92.10
36654;DHT22;22650;49.350;20.898;2024-02-21T11:59:44;12.50;95.60
36654;DHT22;22650;49.350;20.898;2024-02-21T12:02:18;12.50;94.50
36654;DHT22;22650;49.350;20.898;2024-02-21T12:04:52;12.40;96.10
36654;DHT22;22650;49.350;20.898;2024-02-21T12:07:28;12.40;96.90
36654;DHT22;22650;49.350;20.898;2024-02-21T12:10:01;12.40;96.60
36654;DHT22;22650;49.350;20.898;2024-02-21T12:12:37;12.40;95.00
36654;DHT22;22650;49.350;20.898;2024-02-21T12:15:11;12.20;92.90
36654;DHT22;22650;49.350;20.898;2024-02-21T12:17:44;12.20;94.20
36654;DHT22;22650;49.350;20.898;2024-02-21T12:20:18;12.10;95.50
36654;DHT22;22650;49.350;20.898;2024-02-21T12:22:54;12.00;96.10
36654;DHT22;22650;49.350;20.898;2024-02-21T12:25:55;12.00;94.90
36654;DHT22;22650;49.350;20.898;2024-02-21T12:28:31;12.00;97.30
36654;DHT22;22650;49.350;20.898;2024-02-21T12:31:04;11.90;97.50
36654;DHT22;22650;49.350;20.898;2024-02-21T12:33:38;11.90;96.40
36654;DHT22;22650;49.350;20.898;2024-02-21T12:36:12;11.90;96.60
36654;DHT22;22650;49.350;20.898;2024-02-21T12:38:45;11.90;96.00
36654;DHT22;22650;49.350;20.898;2024-02-21T12:41:21;11.80;99.20
36654;DHT22;22650;49.350;20.898;2024-02-21T12:43:58;11.80;99.30
36654;DHT22;22650;49.350;20.898;2024-02-21T12:46:32;11.80;96.60
36654;DHT22;22650;49.350;20.898;2024-02-21T12:49:06;11.80;97.40
36654;DHT22;22650;49.350;20.898;2024-02-21T12:51:40;11.70;99.50
36654;DHT22;22650;49.350;20.898;2024-02-21T12:54:14;11.60;99.10
36654;DHT22;22650;49.350;20.898;2024-02-21T12:56:48;11.40;98.50
36654;DHT22;22650;49.350;20.898;2024-02-21T12:59:23;11.40;99.90
36654;DHT22;22650;49.350;20.898;2024-02-21T13:01:58;11.60;99.90
36654;DHT22;22650;49.350;20.898;2024-02-21T13:04:32;11.90;97.30
36654;DHT22;22650;49.350;20.898;2024-02-21T13:07:06;12.30;98.70
36654;DHT22;22650;49.350;20.898;2024-02-21T13:09:40;12.50;95.80
36654;DHT22;22650;49.350;20.898;2024-02-21T13:12:13;12.90;94.40
36654;DHT22;22650;49.350;20.898;2024-02-21T13:14:49;13.00;91.40
36654;DHT22;22650;49.350;20.898;2024-02-21T13:17:22;13.10;89.10
36654;DHT22;22650;49.350;20.898;2024-02-21T13:19:56;12.90;88.70
36654;DHT22;22650;49.350;20.898;2024-02-21T13:22:36;12.80;90.80
36654;DHT22;22650;49.350;20.898;2024-02-21T13:25:10;12.70;90.30
36654;DHT22;22650;49.350;20.898;2024-02-21T13:27:47;12.60;91.90
36654;DHT22;22650;49.350;20.898;2024-02-21T13:30:22;12.50;88.00
36654;DHT22;22650;49.350;20.898;2024-02-21T13:32:57;12.40;90.80
36654;DHT22;22650;49.350;20.898;2024-02-21T13:35:31;12.40;92.90
36654;DHT22;22650;49.350;20.898;2024-02-21T13:38:04;12.30;92.20
36654;DHT22;22650;49.350;20.898;2024-02-21T13:40:38;12.30;92.60
36654;DHT22;22650;49.350;20.898;2024-02-21T13:43:12;12.30;93.40
36654;DHT22;22650;49.350;20.898;2024-02-21T13:45:56;12.30;92.80
36654;DHT22;22650;49.350;20.898;2024-02-21T13:48:31;12.30;91.20
36654;DHT22;22650;49.350;20.898;2024-02-21T13:51:06;12.30;92.20
36654;DHT22;22650;49.350;20.898;2024-02-21T13:53:39;12.30;91.50
36654;DHT22;22650;49.350;20.898;2024-02-21T13:56:13;12.30;91.10
36654;DHT22;22650;49.350;20.898;2024-02-21T13:58:47;12.20;91.90
36654;DHT22;22650;49.350;20.898;2024-02-21T14:01:22;12.20;90.60
36654;DHT22;22650;49.350;20.898;2024-02-21T14:03:55;12.10;86.30
36654;DHT22;22650;49.350;20.898;2024-02-21T14:06:29;12.10;90.70
36654;DHT22;22650;49.350;20.898;2024-02-21T14:09:02;12.10;90.70
36654;DHT22;22650;49.350;20.898;2024-02-21T14:11:37;12.00;90.90
36654;DHT22;22650;49.350;20.898;2024-02-21T14:14:12;12.00;91.60
36654;DHT22;22650;49.350;20.898;2024-02-21T14:16:48;12.00;91.50
36654;DHT22;22650;49.350;20.898;2024-02-21T14:19:22;11.90;92.80
36654;DHT22;22650;49.350;20.898;2024-02-21T14:21:56;11.90;94.30
36654;DHT22;22650;49.350;20.898;2024-02-21T14:24:30;11.90;95.90
36654;DHT22;22650;49.350;20.898;2024-02-21T14:27:04;11.80;95.00
36654;DHT22;22650;49.350;20.898;2024-02-21T14:29:38;11.80;94.10
36654;DHT22;22650;49.350;20.898;2024-02-21T14:32:13;11.80;94.90
36654;DHT22;22650;49.350;20.898;2024-02-21T14:34:47;11.70;94.50
36654;DHT22;22650;49.350;20.898;2024-02-21T14:37:21;11.70;96.00
36654;DHT22;22650;49.350;20.898;2024-02-21T14:39:55;11.60;98.50
36654;DHT22;22650;49.350;20.898;2024-02-21T14:42:28;11.60;98.70
36654;DHT22;22650;49.350;20.898;2024-02-21T14:45:02;11.60;98.00
36654;DHT22;22650;49.350;20.898;2024-02-21T14:47:38;11.50;98.10
36654;DHT22;22650;49.350;20.898;2024-02-21T14:50:12;11.50;97.50
36654;DHT22;22650;49.350;20.898;2024-02-21T14:52:46;11.40;99.80
36654;DHT22;22650;49.350;20.898;2024-02-21T14:55:19;11.30;99.90
36654;DHT22;22650;49.350;20.898;2024-02-21T14:57:53;11.10;99.90
36654;DHT22;22650;49.350;20.898;2024-02-21T15:00:27;11.00;99.90
36654;DHT22;22650;49.350;20.898;2024-02-21T15:03:04;10.90;99.90
36654;DHT22;22650;49.350;20.898;2024-02-21T15:05:37;10.90;99.90
36654;DHT22;22650;49.350;20.898;2024-02-21T15:08:12;10.80;99.90
36654;DHT22;22650;49.350;20.898;2024-02-21T15:10:49;10.70;99.90
36654;DHT22;22650;49.350;20.898;2024-02-21T15:13:23;10.70;99.90
36654;DHT22;22650;49.350;20.898;2024-02-21T15:15:56;10.60;99.90
36654;DHT22;22650;49.350;20.898;2024-02-21T15:18:31;10.60;99.90
36654;DHT22;22650;49.350;20.898;2024-02-21T15:21:05;10.60;99.90
36654;DHT22;22650;49.350;20.898;2024-02-21T15:23:39;10.60;99.90
36654;DHT22;22650;49.350;20.898;2024-02-21T15:26:13;10.50;99.90
36654;DHT22;22650;49.350;20.898;2024-02-21T15:28:48;10.40;99.90
36654;DHT22;22650;49.350;20.898;2024-02-21T15:31:22;10.30;99.90
36654;DHT22;22650;49.350;20.898;2024-02-21T15:33:57;10.20;99.90
36654;DHT22;22650;49.350;20.898;2024-02-21T15:36:31;10.20;99.90
36654;DHT22;22650;49.350;20.898;2024-02-21T15:39:05;10.10;99.90
36654;DHT22;22650;49.350;20.898;2024-02-21T15:41:40;10.10;99.90
36654;DHT22;22650;49.350;20.898;2024-02-21T15:44:13;10.00;99.90
36654;DHT22;22650;49.350;20.898;2024-02-21T15:46:47;10.00;99.90
36654;DHT22;22650;49.350;20.898;2024-02-21T15:49:22;9.90;99.90
36654;DHT22;22650;49.350;20.898;2024-02-21T15:51:55;9.80;99.90
36654;DHT22;22650;49.350;20.898;2024-02-21T15:54:29;9.60;99.90
36654;DHT22;22650;49.350;20.898;2024-02-21T15:57:03;9.50;99.90
36654;DHT22;22650;49.350;20.898;2024-02-21T15:59:38;9.40;99.90
36654;DHT22;22650;49.350;20.898;2024-02-21T16:02:12;9.40;99.90
36654;DHT22;22650;49.350;20.898;2024-02-21T16:04:47;9.30;99.90
36654;DHT22;22650;49.350;20.898;2024-02-21T16:07:21;9.30;99.90
36654;DHT22;22650;49.350;20.898;2024-02-21T16:09:55;9.20;99.90